Ferry Kyoto2 — JI3701 — position and weather

sailwx.info

Track history (hours):
 
Tides and Currents Weather Stations Pressure Air Temp Water Temp Dewpoint Dewpoint Depression Visibility Wind Speed Wind Dir Waves Ship Positions

Ferry Kyoto2

Last reported at 2014-Nov-22 12:33 UTC. Time now 2014-Nov-23 13:18 UTC.
Position N 34°34' E 134°47'.

Length 167 m; draft 6 m.

Type: Passenger vessel. MMSI: 431301641.

Date/timePositionNaut miles runAvg speedWind from/ knotsBaromVisibWave heightAir tempDewpointWater temp
2014-Nov-22 12:33N 34°34' E 134°47'2121.0
2014-Nov-22 11:33N 34°36' E 135°13'1110.8
2014-Nov-22 10:33N 34°37' E 135°26'0 0.0
2014-Nov-22 09:33N 34°37' E 135°26'0 0.0
2014-Nov-22 08:27N 34°37' E 135°26'0 0.0
2014-Nov-22 07:33N 34°37' E 135°26'0 0.0
2014-Nov-22 06:33N 34°37' E 135°26'0 0.0
2014-Nov-22 05:33N 34°37' E 135°26'0 0.0
2014-Nov-22 04:27N 34°37' E 135°26'0 0.0
2014-Nov-22 03:33N 34°37' E 135°26'0 0.0
2014-Nov-22 02:33N 34°37' E 135°26'0 0.0
2014-Nov-22 01:33N 34°37' E 135°26'0 0.0
2014-Nov-22 00:24N 34°37' E 135°26'0 0.0
2014-Nov-21 23:33N 34°37' E 135°26'1111.5
2014-Nov-21 22:33N 34°35' E 135°12'1817.6
2014-Nov-21 21:33N 34°34' E 134°51'4 0.1
2014-Nov-20 12:33N 34°34' E 134°46'2121.2
2014-Nov-20 11:34N 34°36' E 135°12'1210.7
2014-Nov-20 10:28N 34°37' E 135°26'0 0.0
2014-Nov-20 09:22N 34°37' E 135°26'0 0.0
2014-Nov-20 08:28N 34°37' E 135°26'0 0.0
2014-Nov-20 07:28N 34°37' E 135°26'0 0.0
2014-Nov-20 06:28N 34°37' E 135°26'0 0.0
2014-Nov-20 05:28N 34°37' E 135°26'0 0.0
2014-Nov-20 04:10N 34°37' E 135°26'0 0.0
2014-Nov-20 03:28N 34°37' E 135°26'0 0.0
2014-Nov-20 02:28N 34°37' E 135°26'0 0.0
2014-Nov-20 01:28N 34°37' E 135°26'0 0.0
2014-Nov-20 00:22N 34°37' E 135°26'0 0.0
2014-Nov-19 23:28N 34°37' E 135°26'1011.4
2014-Nov-19 22:33N 34°35' E 135°13'1817.2
2014-Nov-19 21:32N 34°34' E 134°52'4 0.1
2014-Nov-18 12:34N 34°33' E 134°47'2020.4
2014-Nov-18 11:34N 34°36' E 135°12'1210.9
2014-Nov-18 10:30N 34°37' E 135°26'0 0.0
2014-Nov-18 09:24N 34°37' E 135°26'0 0.0
2014-Nov-18 08:24N 34°37' E 135°26'0 0.0
2014-Nov-18 07:30N 34°37' E 135°26'0 0.0
2014-Nov-18 06:30N 34°37' E 135°26'0 0.0
2014-Nov-18 05:30N 34°37' E 135°26'0 0.0
2014-Nov-18 04:30N 34°37' E 135°26'0 0.0
2014-Nov-18 03:06N 34°37' E 135°26'0 0.0
2014-Nov-18 02:24N 34°37' E 135°26'0 0.0
2014-Nov-18 01:24N 34°37' E 135°26'0 0.0
2014-Nov-18 00:30N 34°37' E 135°26'0 0.0
2014-Nov-17 23:31N 34°37' E 135°26'1010.8
2014-Nov-17 22:33N 34°35' E 135°14'1717.2
2014-Nov-17 21:33N 34°35' E 134°53'2 0.1
2014-Nov-16 12:28N 34°35' E 134°50'1819.7
2014-Nov-16 11:33N 34°36' E 135°12'1210.0
2014-Nov-16 10:24N 34°37' E 135°26'0 0.0
2014-Nov-16 09:24N 34°37' E 135°26'0 0.0
2014-Nov-16 08:24N 34°37' E 135°26'0 0.0
2014-Nov-16 07:18N 34°37' E 135°26'0 0.0
2014-Nov-16 06:24N 34°37' E 135°26'0 0.0
2014-Nov-16 05:30N 34°37' E 135°26'0 0.0
2014-Nov-16 04:30N 34°37' E 135°26'0 0.0
2014-Nov-16 03:30N 34°37' E 135°26'0 0.0
2014-Nov-16 02:30N 34°37' E 135°26'0 0.0
2014-Nov-16 01:30N 34°37' E 135°26'0 0.0
2014-Nov-16 00:24N 34°37' E 135°26'0 0.0
2014-Nov-15 23:31N 34°37' E 135°26'1010.8
2014-Nov-15 22:33N 34°35' E 135°14'1717.5
2014-Nov-15 21:33N 34°34' E 134°52'1 0.0
2014-Nov-14 12:31N 34°35' E 134°51'1919.7
2014-Nov-14 11:33N 34°36' E 135°14'10 9.8
2014-Nov-14 10:33N 34°37' E 135°26'0 0.0
2014-Nov-14 09:33N 34°37' E 135°26'0 0.0
2014-Nov-14 08:33N 34°37' E 135°26'0 0.0
2014-Nov-14 07:33N 34°37' E 135°26'0 0.0
2014-Nov-14 06:21N 34°37' E 135°26'0 0.0
2014-Nov-14 04:27N 34°37' E 135°26'0 0.0
2014-Nov-14 03:27N 34°37' E 135°26'0 0.0
2014-Nov-14 02:33N 34°37' E 135°26'0 0.0
2014-Nov-14 01:33N 34°37' E 135°26'0 0.0
2014-Nov-14 00:33N 34°37' E 135°26'0 0.0
2014-Nov-13 23:33N 34°37' E 135°26'9 9.3
2014-Nov-13 22:33N 34°35' E 135°15'1918.6
2014-Nov-13 21:33N 34°34' E 134°52'  
Track history (hours):
 
Tides and Currents Weather Stations Pressure Air Temp Water Temp Dewpoint Dewpoint Depression Visibility Wind Speed Wind Dir Waves Ship Positions

Ferry Kyoto2

Last reported at 2014-Nov-22 12:33 UTC. Time now 2014-Nov-23 13:18 UTC.
Position N 34°34' E 134°47'.

Length 167 m; draft 6 m.

Type: Passenger vessel. MMSI: 431301641.

Date/timePositionNaut miles runAvg speedWind from/ knotsBaromVisibWave heightAir tempDewpointWater temp
2014-Nov-22 12:33N 34°34' E 134°47'2121.0
2014-Nov-22 11:33N 34°36' E 135°13'1110.8
2014-Nov-22 10:33N 34°37' E 135°26'0 0.0
2014-Nov-22 09:33N 34°37' E 135°26'0 0.0
2014-Nov-22 08:27N 34°37' E 135°26'0 0.0
2014-Nov-22 07:33N 34°37' E 135°26'0 0.0
2014-Nov-22 06:33N 34°37' E 135°26'0 0.0
2014-Nov-22 05:33N 34°37' E 135°26'0 0.0
2014-Nov-22 04:27N 34°37' E 135°26'0 0.0
2014-Nov-22 03:33N 34°37' E 135°26'0 0.0
2014-Nov-22 02:33N 34°37' E 135°26'0 0.0
2014-Nov-22 01:33N 34°37' E 135°26'0 0.0
2014-Nov-22 00:24N 34°37' E 135°26'0 0.0
2014-Nov-21 23:33N 34°37' E 135°26'1111.5
2014-Nov-21 22:33N 34°35' E 135°12'1817.6
2014-Nov-21 21:33N 34°34' E 134°51'4 0.1
2014-Nov-20 12:33N 34°34' E 134°46'2121.2
2014-Nov-20 11:34N 34°36' E 135°12'1210.7
2014-Nov-20 10:28N 34°37' E 135°26'0 0.0
2014-Nov-20 09:22N 34°37' E 135°26'0 0.0
2014-Nov-20 08:28N 34°37' E 135°26'0 0.0
2014-Nov-20 07:28N 34°37' E 135°26'0 0.0
2014-Nov-20 06:28N 34°37' E 135°26'0 0.0
2014-Nov-20 05:28N 34°37' E 135°26'0 0.0
2014-Nov-20 04:10N 34°37' E 135°26'0 0.0
2014-Nov-20 03:28N 34°37' E 135°26'0 0.0
2014-Nov-20 02:28N 34°37' E 135°26'0 0.0
2014-Nov-20 01:28N 34°37' E 135°26'0 0.0
2014-Nov-20 00:22N 34°37' E 135°26'0 0.0
2014-Nov-19 23:28N 34°37' E 135°26'1011.4
2014-Nov-19 22:33N 34°35' E 135°13'1817.2
2014-Nov-19 21:32N 34°34' E 134°52'4 0.1
2014-Nov-18 12:34N 34°33' E 134°47'2020.4
2014-Nov-18 11:34N 34°36' E 135°12'1210.9
2014-Nov-18 10:30N 34°37' E 135°26'0 0.0
2014-Nov-18 09:24N 34°37' E 135°26'0 0.0
2014-Nov-18 08:24N 34°37' E 135°26'0 0.0
2014-Nov-18 07:30N 34°37' E 135°26'0 0.0
2014-Nov-18 06:30N 34°37' E 135°26'0 0.0
2014-Nov-18 05:30N 34°37' E 135°26'0 0.0
2014-Nov-18 04:30N 34°37' E 135°26'0 0.0
2014-Nov-18 03:06N 34°37' E 135°26'0 0.0
2014-Nov-18 02:24N 34°37' E 135°26'0 0.0
2014-Nov-18 01:24N 34°37' E 135°26'0 0.0
2014-Nov-18 00:30N 34°37' E 135°26'0 0.0
2014-Nov-17 23:31N 34°37' E 135°26'1010.8
2014-Nov-17 22:33N 34°35' E 135°14'1717.2
2014-Nov-17 21:33N 34°35' E 134°53'2 0.1
2014-Nov-16 12:28N 34°35' E 134°50'1819.7
2014-Nov-16 11:33N 34°36' E 135°12'1210.0
2014-Nov-16 10:24N 34°37' E 135°26'0 0.0
2014-Nov-16 09:24N 34°37' E 135°26'0 0.0
2014-Nov-16 08:24N 34°37' E 135°26'0 0.0
2014-Nov-16 07:18N 34°37' E 135°26'0 0.0
2014-Nov-16 06:24N 34°37' E 135°26'0 0.0
2014-Nov-16 05:30N 34°37' E 135°26'0 0.0
2014-Nov-16 04:30N 34°37' E 135°26'0 0.0
2014-Nov-16 03:30N 34°37' E 135°26'0 0.0
2014-Nov-16 02:30N 34°37' E 135°26'0 0.0
2014-Nov-16 01:30N 34°37' E 135°26'0 0.0
2014-Nov-16 00:24N 34°37' E 135°26'0 0.0
2014-Nov-15 23:31N 34°37' E 135°26'1010.8
2014-Nov-15 22:33N 34°35' E 135°14'1717.5
2014-Nov-15 21:33N 34°34' E 134°52'1 0.0
2014-Nov-14 12:31N 34°35' E 134°51'1919.7
2014-Nov-14 11:33N 34°36' E 135°14'10 9.8
2014-Nov-14 10:33N 34°37' E 135°26'0 0.0
2014-Nov-14 09:33N 34°37' E 135°26'0 0.0
2014-Nov-14 08:33N 34°37' E 135°26'0 0.0
2014-Nov-14 07:33N 34°37' E 135°26'0 0.0
2014-Nov-14 06:21N 34°37' E 135°26'0 0.0
2014-Nov-14 04:27N 34°37' E 135°26'0 0.0
2014-Nov-14 03:27N 34°37' E 135°26'0 0.0
2014-Nov-14 02:33N 34°37' E 135°26'0 0.0
2014-Nov-14 01:33N 34°37' E 135°26'0 0.0
2014-Nov-14 00:33N 34°37' E 135°26'0 0.0
2014-Nov-13 23:33N 34°37' E 135°26'9 9.3
2014-Nov-13 22:33N 34°35' E 135°15'1918.6
2014-Nov-13 21:33N 34°34' E 134°52'  

Dump ship's entire track history